createdAt,value
2022-12-04T00:00:57.752Z,20.57
2022-12-04T00:03:25.629Z,20.53
2022-12-04T00:05:53.416Z,20.53
2022-12-04T00:08:21.242Z,20.57
2022-12-04T00:10:49.349Z,20.54
2022-12-04T00:13:17.173Z,20.48
2022-12-04T00:15:45.116Z,20.46
2022-12-04T00:18:12.958Z,20.48
2022-12-04T00:20:41.589Z,20.45
2022-12-04T00:23:09.365Z,20.44
2022-12-04T00:25:41.200Z,20.43
2022-12-04T00:28:09.373Z,20.45
2022-12-04T00:30:37.460Z,20.44
2022-12-04T00:33:05.273Z,20.42
2022-12-04T00:35:33.170Z,20.39
2022-12-04T00:38:00.917Z,20.38
2022-12-04T00:40:28.854Z,20.37
2022-12-04T00:42:56.676Z,20.36
2022-12-04T00:45:24.633Z,20.32
2022-12-04T00:47:52.408Z,20.31
2022-12-04T00:50:20.249Z,20.32
2022-12-04T00:52:48.011Z,20.30
2022-12-04T00:55:15.947Z,20.30
2022-12-04T00:57:43.762Z,20.31
2022-12-04T01:00:11.703Z,20.29
2022-12-04T01:02:39.578Z,20.29
2022-12-04T01:05:07.415Z,20.27
2022-12-04T01:07:35.224Z,20.29
2022-12-04T01:10:02.997Z,20.26
2022-12-04T01:12:30.822Z,20.27
2022-12-04T01:14:58.686Z,20.29
2022-12-04T01:17:26.461Z,20.30
2022-12-04T01:19:54.497Z,20.28
2022-12-04T01:22:22.481Z,20.25
2022-12-04T01:24:50.512Z,20.27
2022-12-04T01:27:18.249Z,20.24
2022-12-04T01:29:46.149Z,20.22
2022-12-04T01:32:14.315Z,20.20
2022-12-04T01:34:42.208Z,20.21
2022-12-04T01:37:10.191Z,20.23
2022-12-04T01:39:37.919Z,20.26
2022-12-04T01:42:05.986Z,20.28
2022-12-04T01:44:34.034Z,20.22
2022-12-04T01:47:01.752Z,20.21
2022-12-04T01:49:29.549Z,20.17
2022-12-04T01:51:57.299Z,20.13
2022-12-04T01:54:28.471Z,20.10
2022-12-04T01:56:56.670Z,20.11
2022-12-04T01:59:24.535Z,20.12
2022-12-04T02:01:52.407Z,20.09
2022-12-04T02:04:20.389Z,20.08
2022-12-04T02:06:48.398Z,20.09
2022-12-04T02:09:17.607Z,20.13
2022-12-04T02:11:48.216Z,20.11
2022-12-04T02:14:16.029Z,20.11
2022-12-04T02:16:43.836Z,20.09
2022-12-04T02:19:11.626Z,20.13
2022-12-04T02:21:39.834Z,20.06
2022-12-04T02:24:07.639Z,20.05
2022-12-04T02:26:35.453Z,20.06
2022-12-04T02:29:03.190Z,20.07
2022-12-04T02:31:30.962Z,20.15
2022-12-04T02:33:59.039Z,20.09
2022-12-04T02:36:26.804Z,20.08
2022-12-04T02:38:54.674Z,20.06
2022-12-04T02:41:22.970Z,20.05
2022-12-04T02:43:50.848Z,20.06
2022-12-04T02:46:18.816Z,20.08
2022-12-04T02:48:46.744Z,20.07
2022-12-04T02:51:14.501Z,20.09
2022-12-04T02:53:42.220Z,20.10
2022-12-04T02:56:10.018Z,20.06
2022-12-04T02:58:37.903Z,20.03
2022-12-04T03:01:18.238Z,19.98
2022-12-04T03:03:46.207Z,19.96
2022-12-04T03:06:13.981Z,19.94
2022-12-04T03:08:41.798Z,19.91
2022-12-04T03:11:09.591Z,19.89
2022-12-04T03:13:37.383Z,19.87
2022-12-04T03:16:05.258Z,19.86
2022-12-04T03:18:33.045Z,19.86
2022-12-04T03:21:00.846Z,19.83
2022-12-04T03:23:28.622Z,19.80
2022-12-04T03:25:56.348Z,19.82
2022-12-04T03:28:24.255Z,19.80
2022-12-04T03:30:52.244Z,19.79
2022-12-04T03:33:20.041Z,19.79
2022-12-04T03:35:47.928Z,19.79
2022-12-04T03:38:15.820Z,19.80
2022-12-04T03:40:43.559Z,19.79
2022-12-04T03:43:11.327Z,19.81
2022-12-04T03:45:39.154Z,19.82
2022-12-04T03:48:06.999Z,19.82
2022-12-04T03:50:34.751Z,19.81
2022-12-04T03:53:02.538Z,19.83
2022-12-04T03:55:30.310Z,19.86
2022-12-04T03:57:58.345Z,19.88
2022-12-04T04:00:26.177Z,19.84
2022-12-04T04:02:54.167Z,19.86
2022-12-04T04:05:21.953Z,19.85
2022-12-04T04:07:49.811Z,19.94
2022-12-04T04:10:17.649Z,19.89
2022-12-04T04:12:45.428Z,19.86
2022-12-04T04:15:31.942Z,19.94
2022-12-04T04:18:17.126Z,19.86
2022-12-04T04:21:02.426Z,19.85
2022-12-04T04:23:47.641Z,19.89
2022-12-04T04:26:15.583Z,19.86
2022-12-04T04:28:43.388Z,19.88
2022-12-04T04:31:11.348Z,19.85
2022-12-04T04:33:39.267Z,19.83
2022-12-04T04:36:07.246Z,19.78
2022-12-04T04:38:35.165Z,19.78
2022-12-04T04:43:58.647Z,19.81
2022-12-04T04:46:26.517Z,19.80
2022-12-04T04:48:54.419Z,19.80
2022-12-04T04:51:22.153Z,19.80
2022-12-04T04:53:50.098Z,19.80
2022-12-04T04:56:17.846Z,19.77
2022-12-04T04:58:45.857Z,19.76
2022-12-04T05:01:13.976Z,19.76
2022-12-04T05:03:41.767Z,19.77
2022-12-04T05:06:09.532Z,19.75
2022-12-04T05:08:37.309Z,19.76
2022-12-04T05:11:05.091Z,19.73
2022-12-04T05:13:33.122Z,19.71
2022-12-04T05:16:00.951Z,19.68
2022-12-04T05:18:28.972Z,19.65
2022-12-04T05:20:55.862Z,19.70
2022-12-04T05:23:23.619Z,19.66
2022-12-04T05:25:53.176Z,19.63
2022-12-04T05:28:20.923Z,19.62
2022-12-04T05:30:48.784Z,19.60
2022-12-04T05:33:16.565Z,19.58
2022-12-04T05:35:44.272Z,19.58
2022-12-04T05:38:12.203Z,19.66
2022-12-04T05:40:39.979Z,19.68
2022-12-04T05:43:07.799Z,19.70
2022-12-04T05:45:35.812Z,19.71
2022-12-04T05:48:03.590Z,19.93
2022-12-04T05:50:31.406Z,21.04
2022-12-04T05:52:59.201Z,24.70
2022-12-04T05:55:27.125Z,31.41
2022-12-04T05:57:54.893Z,36.90
2022-12-04T06:00:22.664Z,40.73
2022-12-04T06:02:50.870Z,43.21
2022-12-04T06:05:18.916Z,44.80
2022-12-04T06:07:46.758Z,45.85
2022-12-04T06:10:14.683Z,46.63
2022-12-04T06:12:45.534Z,47.22
2022-12-04T06:15:13.293Z,47.63
2022-12-04T06:17:41.061Z,47.84
2022-12-04T06:20:11.674Z,48.06
2022-12-04T06:22:39.887Z,48.14
2022-12-04T06:25:07.723Z,48.08
2022-12-04T06:27:35.693Z,47.43
2022-12-04T06:30:03.482Z,46.44
2022-12-04T06:32:31.364Z,45.09
2022-12-04T06:34:59.159Z,43.68
2022-12-04T06:37:27.204Z,42.23
2022-12-04T06:39:55.334Z,40.92
2022-12-04T06:42:23.413Z,39.56
2022-12-04T06:44:51.296Z,38.28
2022-12-04T06:47:19.108Z,37.09
2022-12-04T06:49:47.223Z,36.03
2022-12-04T06:52:15.035Z,35.00
2022-12-04T06:54:42.912Z,34.09
2022-12-04T06:57:10.673Z,33.15
2022-12-04T06:59:38.426Z,32.39
2022-12-04T07:02:06.434Z,31.60
2022-12-04T07:04:34.427Z,30.94
2022-12-04T07:07:02.274Z,30.33
2022-12-04T07:09:30.083Z,29.71
2022-12-04T07:11:57.964Z,29.10
2022-12-04T07:14:25.739Z,28.61
2022-12-04T07:16:53.752Z,28.17
2022-12-04T07:19:21.621Z,27.73
2022-12-04T07:21:49.504Z,27.36
2022-12-04T07:24:17.351Z,27.52
2022-12-04T07:26:45.151Z,27.38
2022-12-04T07:29:12.999Z,27.25
2022-12-04T07:31:40.978Z,27.08
2022-12-04T07:34:08.850Z,26.78
2022-12-04T07:36:36.624Z,26.56
2022-12-04T07:39:04.505Z,26.32
2022-12-04T07:41:32.311Z,26.11
2022-12-04T07:44:00.190Z,25.85
2022-12-04T07:46:28.282Z,25.62
2022-12-04T07:48:58.450Z,25.34
2022-12-04T07:51:26.197Z,25.07
2022-12-04T07:53:54.310Z,24.86
2022-12-04T07:56:22.313Z,25.56
2022-12-04T07:58:50.173Z,27.91
2022-12-04T08:01:18.116Z,30.65
2022-12-04T08:03:48.410Z,32.85
2022-12-04T08:06:16.773Z,33.75
2022-12-04T08:08:44.593Z,33.87
2022-12-04T08:11:12.328Z,33.66
2022-12-04T08:13:40.155Z,33.15
2022-12-04T08:16:08.068Z,32.43
2022-12-04T08:18:35.906Z,31.58
2022-12-04T08:21:04.001Z,30.96
2022-12-04T08:23:31.747Z,30.30
2022-12-04T08:25:59.599Z,29.73
2022-12-04T08:28:27.336Z,29.19
2022-12-04T08:30:55.242Z,28.68
2022-12-04T08:33:23.101Z,28.17
2022-12-04T08:35:50.969Z,27.70
2022-12-04T08:38:18.921Z,27.30
2022-12-04T08:40:46.749Z,26.91
2022-12-04T08:43:14.511Z,26.53
2022-12-04T08:45:42.458Z,26.22
2022-12-04T08:48:10.201Z,25.93
2022-12-04T08:50:37.932Z,25.67
2022-12-04T08:53:05.748Z,25.39
2022-12-04T08:55:33.600Z,25.14
2022-12-04T08:58:01.403Z,24.94
2022-12-04T09:00:31.559Z,24.75
2022-12-04T09:02:59.348Z,24.54
2022-12-04T09:05:27.144Z,24.35
2022-12-04T09:07:54.930Z,24.17
2022-12-04T09:10:22.762Z,24.04
2022-12-04T09:12:50.524Z,23.93
2022-12-04T09:15:18.539Z,23.78
2022-12-04T09:17:46.310Z,23.66
2022-12-04T09:20:15.009Z,23.53
2022-12-04T09:23:02.882Z,23.39
2022-12-04T09:25:30.648Z,23.28
2022-12-04T09:27:58.673Z,23.21
2022-12-04T09:30:26.538Z,23.11
2022-12-04T09:32:54.476Z,23.02
2022-12-04T09:35:22.271Z,22.93
2022-12-04T09:37:50.092Z,22.82
2022-12-04T09:40:17.922Z,22.76
2022-12-04T09:42:45.698Z,22.69
2022-12-04T09:45:13.509Z,22.62
2022-12-04T09:47:43.048Z,22.51
2022-12-04T09:50:10.872Z,22.40
2022-12-04T09:52:38.698Z,22.32
2022-12-04T09:55:06.643Z,22.22
2022-12-04T09:57:34.447Z,22.17
2022-12-04T10:00:02.332Z,22.06
2022-12-04T10:02:30.274Z,21.99
2022-12-04T10:04:58.164Z,21.99
2022-12-04T10:07:26.220Z,21.93
2022-12-04T10:09:54.417Z,21.88
2022-12-04T10:12:22.694Z,21.80
2022-12-04T10:14:50.456Z,21.76
2022-12-04T10:17:18.364Z,21.72
2022-12-04T10:19:46.345Z,21.67
2022-12-04T10:22:14.162Z,21.63
2022-12-04T10:24:42.078Z,21.59
2022-12-04T10:27:09.819Z,21.59
2022-12-04T10:29:37.582Z,21.60
2022-12-04T10:32:05.648Z,21.55
2022-12-04T10:34:33.447Z,21.53
2022-12-04T10:37:01.234Z,21.49
2022-12-04T10:39:31.031Z,21.40
2022-12-04T10:41:58.827Z,21.40
2022-12-04T10:44:26.626Z,21.44
2022-12-04T10:46:54.569Z,21.46
2022-12-04T10:49:22.435Z,21.46
2022-12-04T10:51:50.155Z,21.43
2022-12-04T10:54:17.919Z,21.43
2022-12-04T10:56:45.757Z,21.40
2022-12-04T10:59:13.581Z,21.43
2022-12-04T11:01:41.393Z,21.40
2022-12-04T11:04:09.366Z,21.38
2022-12-04T11:06:37.104Z,21.35
2022-12-04T11:09:04.897Z,21.34
2022-12-04T11:11:32.690Z,21.31
2022-12-04T11:14:00.486Z,21.31
2022-12-04T11:16:28.494Z,21.28
2022-12-04T11:18:56.541Z,21.26
2022-12-04T11:21:24.329Z,21.20
2022-12-04T11:23:52.189Z,21.18
2022-12-04T11:26:20.063Z,21.14
2022-12-04T11:28:47.912Z,21.12
2022-12-04T11:31:15.789Z,21.07
2022-12-04T11:33:43.654Z,20.99
2022-12-04T11:36:11.448Z,20.94
2022-12-04T11:38:39.195Z,20.88
2022-12-04T11:41:06.971Z,20.85
2022-12-04T11:43:35.676Z,20.81
2022-12-04T11:46:03.514Z,20.78
2022-12-04T11:48:31.451Z,20.75
2022-12-04T11:50:59.409Z,20.76
2022-12-04T11:53:27.175Z,20.75
2022-12-04T11:55:55.037Z,20.74
2022-12-04T11:58:22.862Z,20.82
2022-12-04T12:00:50.684Z,20.82
2022-12-04T12:03:18.568Z,20.81
2022-12-04T12:05:46.434Z,20.80
2022-12-04T12:08:14.236Z,20.77
2022-12-04T12:10:44.882Z,20.75
2022-12-04T12:13:13.502Z,20.72
2022-12-04T12:15:41.618Z,20.77
2022-12-04T12:18:09.416Z,20.77
2022-12-04T12:20:37.143Z,20.73
2022-12-04T12:23:04.904Z,20.72
2022-12-04T12:25:32.734Z,20.71
2022-12-04T12:28:00.793Z,20.75
2022-12-04T12:30:28.595Z,20.77
2022-12-04T12:32:56.405Z,20.76
2022-12-04T12:35:24.224Z,20.77
2022-12-04T12:37:52.023Z,20.76
2022-12-04T12:40:19.829Z,20.78
2022-12-04T12:42:47.644Z,20.76
2022-12-04T12:45:15.526Z,21.19
2022-12-04T12:47:43.267Z,28.40
2022-12-04T12:50:11.100Z,35.65
2022-12-04T12:52:38.972Z,40.21
2022-12-04T12:55:06.697Z,42.83
2022-12-04T12:57:34.588Z,43.66
2022-12-04T13:00:02.398Z,43.22
2022-12-04T13:02:30.338Z,42.32
2022-12-04T13:04:58.251Z,41.24
2022-12-04T13:07:26.154Z,40.17
2022-12-04T13:09:54.085Z,39.11
2022-12-04T13:12:22.012Z,38.04
2022-12-04T13:14:49.896Z,37.02
2022-12-04T13:17:17.664Z,36.06
2022-12-04T13:19:45.903Z,35.29
2022-12-04T13:22:13.733Z,34.41
2022-12-04T13:24:41.528Z,33.80
2022-12-04T13:27:09.237Z,33.25
2022-12-04T13:29:37.066Z,32.70
2022-12-04T13:32:04.824Z,32.01
2022-12-04T13:34:32.660Z,31.38
2022-12-04T13:37:00.420Z,30.78
2022-12-04T13:39:28.201Z,30.19
2022-12-04T13:41:56.015Z,29.63
2022-12-04T13:44:23.949Z,29.13
2022-12-04T13:46:51.729Z,28.67
2022-12-04T13:49:19.646Z,28.22
2022-12-04T13:51:47.570Z,27.85
2022-12-04T13:54:15.436Z,28.01
2022-12-04T13:56:43.403Z,27.93
2022-12-04T13:59:11.175Z,27.62
2022-12-04T14:01:39.196Z,27.32
2022-12-04T14:04:07.084Z,26.98
2022-12-04T14:06:37.093Z,26.69
2022-12-04T14:09:04.875Z,26.47
2022-12-04T14:11:33.023Z,26.22
2022-12-04T14:14:06.449Z,25.97
2022-12-04T14:16:35.970Z,25.77
2022-12-04T14:19:03.822Z,25.59
2022-12-04T14:21:33.880Z,25.38
2022-12-04T14:24:01.660Z,25.19
2022-12-04T14:27:09.617Z,25.42
2022-12-04T14:29:19.267Z,26.02
2022-12-04T14:31:47.071Z,26.25
2022-12-04T14:34:14.948Z,26.29
2022-12-04T14:36:42.782Z,26.27
2022-12-04T14:39:10.533Z,26.16
2022-12-04T14:41:38.859Z,25.96
2022-12-04T14:44:06.754Z,25.74
2022-12-04T14:46:34.617Z,25.52
2022-12-04T14:49:02.501Z,25.36
2022-12-04T14:51:30.267Z,25.15
2022-12-04T14:54:00.130Z,24.91
2022-12-04T14:56:27.986Z,24.69
2022-12-04T14:58:55.895Z,24.73
2022-12-04T15:01:28.660Z,26.21
2022-12-04T15:03:58.016Z,28.66
2022-12-04T15:06:25.838Z,32.76
2022-12-04T15:08:53.685Z,36.56
2022-12-04T15:11:38.943Z,39.56
2022-12-04T15:14:07.019Z,41.49
2022-12-04T15:16:34.988Z,42.25
2022-12-04T15:19:02.750Z,42.22
2022-12-04T15:21:30.554Z,41.57
2022-12-04T15:23:58.399Z,40.65
2022-12-04T15:26:26.940Z,39.60
2022-12-04T15:28:54.709Z,38.42
2022-12-04T15:31:22.659Z,37.32
2022-12-04T15:33:51.767Z,36.32
2022-12-04T15:36:19.510Z,35.31
2022-12-04T15:38:47.264Z,34.36
2022-12-04T15:41:18.685Z,33.48
2022-12-04T15:43:50.422Z,32.58
2022-12-04T15:46:18.385Z,31.81
2022-12-04T15:48:48.010Z,31.08
2022-12-04T15:51:16.966Z,30.37
2022-12-04T15:53:45.146Z,29.77
2022-12-04T15:56:13.049Z,29.16
2022-12-04T15:58:40.824Z,28.64
2022-12-04T16:01:08.710Z,28.14
2022-12-04T16:03:36.756Z,27.64
2022-12-04T16:06:04.639Z,27.24
2022-12-04T16:08:32.459Z,27.44
2022-12-04T16:11:00.209Z,27.35
2022-12-04T16:13:28.025Z,27.20
2022-12-04T16:15:55.854Z,27.03
2022-12-04T16:18:23.683Z,26.87
2022-12-04T16:20:51.484Z,27.47
2022-12-04T16:23:19.353Z,27.89
2022-12-04T16:25:49.954Z,27.97
2022-12-04T16:28:21.140Z,27.82
2022-12-04T16:30:48.911Z,27.56
2022-12-04T16:33:16.742Z,27.25
2022-12-04T16:35:44.717Z,26.94
2022-12-04T16:38:12.516Z,26.61
2022-12-04T16:40:40.298Z,26.27
2022-12-04T16:43:08.133Z,26.09
2022-12-04T16:45:42.815Z,26.77
2022-12-04T16:51:36.066Z,31.11
2022-12-04T16:54:03.972Z,34.01
2022-12-04T16:56:31.705Z,36.55
2022-12-04T17:05:14.922Z,39.74
2022-12-04T17:07:42.891Z,39.19
2022-12-04T17:10:24.287Z,38.34
2022-12-04T17:12:55.861Z,37.22
2022-12-04T17:15:25.586Z,36.19
2022-12-04T17:17:55.542Z,35.17
2022-12-04T17:20:32.316Z,34.19
2022-12-04T17:23:00.084Z,33.22
2022-12-04T17:25:27.923Z,32.43
2022-12-04T17:27:55.656Z,31.60
2022-12-04T17:30:23.413Z,30.91
2022-12-04T17:32:51.185Z,30.25
2022-12-04T17:35:19.086Z,29.60
2022-12-04T17:38:05.421Z,28.93
2022-12-04T17:40:33.810Z,28.33
2022-12-04T17:43:01.591Z,27.88
2022-12-04T17:45:29.727Z,27.37
2022-12-04T17:47:57.492Z,26.97
2022-12-04T17:50:25.282Z,26.63
2022-12-04T17:52:53.166Z,26.78
2022-12-04T17:55:20.944Z,26.84
2022-12-04T17:57:48.680Z,26.62
2022-12-04T18:00:16.439Z,26.37
2022-12-04T18:02:48.708Z,26.14
2022-12-04T18:05:19.432Z,26.00
2022-12-04T18:07:47.261Z,25.80
2022-12-04T18:10:15.112Z,25.60
2022-12-04T18:12:42.911Z,25.36
2022-12-04T18:15:10.709Z,25.11
2022-12-04T18:17:39.686Z,24.95
2022-12-04T18:20:07.654Z,24.71
2022-12-04T18:22:35.874Z,24.55
2022-12-04T18:25:11.185Z,24.46
2022-12-04T18:27:41.807Z,24.35
2022-12-04T18:30:12.115Z,24.24
2022-12-04T18:32:39.863Z,24.21
2022-12-04T18:35:07.634Z,24.18
2022-12-04T18:37:37.795Z,24.17
2022-12-04T18:40:07.271Z,24.36
2022-12-04T18:42:35.531Z,28.34
2022-12-04T18:45:03.368Z,34.69
2022-12-04T18:47:31.310Z,38.49
2022-12-04T18:49:59.367Z,40.17
2022-12-04T18:52:27.519Z,41.06
2022-12-04T18:54:57.410Z,42.37
2022-12-04T18:57:25.223Z,43.71
2022-12-04T18:59:53.287Z,44.33
2022-12-04T19:02:21.182Z,44.28
2022-12-04T19:04:49.314Z,43.62
2022-12-04T19:07:18.752Z,42.65
2022-12-04T19:12:38.192Z,40.15
2022-12-04T19:15:08.835Z,39.07
2022-12-04T19:17:36.653Z,37.93
2022-12-04T19:20:04.639Z,36.76
2022-12-04T19:22:32.680Z,35.74
2022-12-04T19:25:12.546Z,34.83
2022-12-04T19:27:40.332Z,33.87
2022-12-04T19:30:08.079Z,32.96
2022-12-04T19:32:35.823Z,32.19
2022-12-04T19:35:03.692Z,31.52
2022-12-04T19:37:31.518Z,30.83
2022-12-04T19:40:02.702Z,30.15
2022-12-04T19:42:30.539Z,29.56
2022-12-04T19:44:58.253Z,29.00
2022-12-04T19:47:26.600Z,28.55
2022-12-04T19:49:54.839Z,28.10
2022-12-04T19:52:22.924Z,28.01
2022-12-04T19:54:50.796Z,28.02
2022-12-04T19:57:18.577Z,27.89
2022-12-04T19:59:47.002Z,27.65
2022-12-04T20:02:15.099Z,27.39
2022-12-04T20:04:43.332Z,27.04
2022-12-04T20:07:11.324Z,26.69
2022-12-04T20:09:39.214Z,26.51
2022-12-04T20:12:21.768Z,26.24
2022-12-04T20:14:49.683Z,25.98
2022-12-04T20:17:17.544Z,25.79
2022-12-04T20:19:45.402Z,25.58
2022-12-04T20:22:13.425Z,25.39
2022-12-04T20:24:51.539Z,25.22
2022-12-04T20:27:19.526Z,25.01
2022-12-04T20:29:47.324Z,24.81
2022-12-04T20:32:15.239Z,24.61
2022-12-04T20:34:43.868Z,24.45
2022-12-04T20:37:12.031Z,24.30
2022-12-04T20:39:40.331Z,24.12
2022-12-04T20:42:08.207Z,23.91
2022-12-04T20:44:36.239Z,23.74
2022-12-04T20:47:04.115Z,23.64
2022-12-04T20:49:32.107Z,23.50
2022-12-04T20:52:00.124Z,23.39
2022-12-04T20:54:28.211Z,23.32
2022-12-04T20:56:59.091Z,23.22
2022-12-04T20:59:26.850Z,23.11
2022-12-04T21:01:56.114Z,23.02
2022-12-04T21:04:26.598Z,22.91
2022-12-04T21:06:58.001Z,22.86
2022-12-04T21:09:26.748Z,22.81
2022-12-04T21:11:54.733Z,22.73
2022-12-04T21:14:39.838Z,22.70
2022-12-04T21:17:09.471Z,22.62
2022-12-04T21:19:37.549Z,22.59
2022-12-04T21:22:05.352Z,22.54
2022-12-04T21:24:38.640Z,22.48
2022-12-04T21:27:06.781Z,22.42
2022-12-04T21:29:35.191Z,22.38
2022-12-04T21:32:02.986Z,22.33
2022-12-04T21:34:30.844Z,22.28
2022-12-04T21:36:58.792Z,22.24
2022-12-04T21:39:26.777Z,22.18
2022-12-04T21:42:11.952Z,22.13
2022-12-04T21:44:39.757Z,22.09
2022-12-04T21:47:07.606Z,22.04
2022-12-04T21:49:35.519Z,22.00
2022-12-04T21:52:03.330Z,21.95
2022-12-04T21:54:31.262Z,21.92
2022-12-04T21:56:59.119Z,21.87
2022-12-04T21:59:26.991Z,21.84
2022-12-04T22:01:54.946Z,21.79
2022-12-04T22:04:22.888Z,21.77
2022-12-04T22:06:50.741Z,21.73
2022-12-04T22:09:18.680Z,21.70
2022-12-04T22:11:46.533Z,21.65
2022-12-04T22:14:14.391Z,21.61
2022-12-04T22:16:43.398Z,21.55
2022-12-04T22:19:11.531Z,21.54
2022-12-04T22:21:39.478Z,21.50
2022-12-04T22:24:07.362Z,21.45
2022-12-04T22:26:35.439Z,21.42
2022-12-04T22:29:20.864Z,21.40
2022-12-04T22:31:51.364Z,21.35
2022-12-04T22:34:19.359Z,21.33
2022-12-04T22:36:47.238Z,21.31
2022-12-04T22:39:17.342Z,21.30
2022-12-04T22:41:45.225Z,21.25
2022-12-04T22:44:13.202Z,21.25
2022-12-04T22:47:52.252Z,21.22
2022-12-04T22:50:20.009Z,21.16
2022-12-04T22:52:47.798Z,21.07
2022-12-04T22:55:15.739Z,21.01
2022-12-04T22:57:43.583Z,20.97
2022-12-04T23:00:11.552Z,20.98
2022-12-04T23:02:39.386Z,20.93
2022-12-04T23:05:07.381Z,20.93
2022-12-04T23:07:35.421Z,21.00
2022-12-04T23:10:03.325Z,21.05
2022-12-04T23:12:31.304Z,21.01
2022-12-04T23:14:59.217Z,21.04
2022-12-04T23:17:27.187Z,21.08
2022-12-04T23:19:55.231Z,21.07
2022-12-04T23:22:23.227Z,21.04
2022-12-04T23:24:51.206Z,21.06
2022-12-04T23:27:18.962Z,21.06
2022-12-04T23:29:54.220Z,21.04
2022-12-04T23:32:22.097Z,21.02
2022-12-04T23:34:50.097Z,21.00
2022-12-04T23:37:17.880Z,20.97
2022-12-04T23:39:45.786Z,20.92
2022-12-04T23:42:13.752Z,20.88
2022-12-04T23:44:41.632Z,20.90
2022-12-04T23:47:10.441Z,20.91
2022-12-04T23:49:38.291Z,20.89
2022-12-04T23:52:06.290Z,20.87
2022-12-04T23:54:37.712Z,20.87
2022-12-04T23:57:05.548Z,20.84
2022-12-04T23:59:33.317Z,20.81
